sensor_id;sensor_type;location;lat;lon;timestamp;temperature;humidity
42261;DHT22;27926;48.062;7.474;2023-09-18T00:01:10;18.50;99.90
42261;DHT22;27926;48.062;7.474;2023-09-18T00:03:34;18.60;99.90
42261;DHT22;27926;48.062;7.474;2023-09-18T00:06:00;18.70;99.90
42261;DHT22;27926;48.062;7.474;2023-09-18T00:08:24;18.80;99.90
42261;DHT22;27926;48.062;7.474;2023-09-18T00:10:51;18.90;99.90
42261;DHT22;27926;48.062;7.474;2023-09-18T00:13:16;19.10;99.90
42261;DHT22;27926;48.062;7.474;2023-09-18T00:15:41;19.20;99.90
42261;DHT22;27926;48.062;7.474;2023-09-18T00:18:07;19.20;99.90
42261;DHT22;27926;48.062;7.474;2023-09-18T00:20:32;19.20;99.90
42261;DHT22;27926;48.062;7.474;2023-09-18T00:22:56;19.20;99.90
42261;DHT22;27926;48.062;7.474;2023-09-18T00:25:24;19.20;99.90
42261;DHT22;27926;48.062;7.474;2023-09-18T00:27:49;19.20;99.90
42261;DHT22;27926;48.062;7.474;2023-09-18T00:30:13;19.10;99.90
42261;DHT22;27926;48.062;7.474;2023-09-18T00:32:38;19.00;99.90
42261;DHT22;27926;48.062;7.474;2023-09-18T00:35:03;19.00;99.90
42261;DHT22;27926;48.062;7.474;2023-09-18T00:37:29;18.90;99.90
42261;DHT22;27926;48.062;7.474;2023-09-18T00:39:53;18.90;99.90
42261;DHT22;27926;48.062;7.474;2023-09-18T00:42:18;18.90;99.90
42261;DHT22;27926;48.062;7.474;2023-09-18T00:44:42;18.90;99.90
42261;DHT22;27926;48.062;7.474;2023-09-18T00:47:10;18.90;99.90
42261;DHT22;27926;48.062;7.474;2023-09-18T00:49:40;19.00;99.90
42261;DHT22;27926;48.062;7.474;2023-09-18T00:52:07;19.00;99.90
42261;DHT22;27926;48.062;7.474;2023-09-18T00:54:33;19.00;99.90
42261;DHT22;27926;48.062;7.474;2023-09-18T00:56:59;19.00;99.90
42261;DHT22;27926;48.062;7.474;2023-09-18T00:59:24;18.90;99.90
42261;DHT22;27926;48.062;7.474;2023-09-18T01:01:49;18.90;99.90
42261;DHT22;27926;48.062;7.474;2023-09-18T01:04:16;18.90;99.90
42261;DHT22;27926;48.062;7.474;2023-09-18T01:06:41;18.90;99.90
42261;DHT22;27926;48.062;7.474;2023-09-18T01:09:06;19.00;99.90
42261;DHT22;27926;48.062;7.474;2023-09-18T01:11:50;19.00;99.90
42261;DHT22;27926;48.062;7.474;2023-09-18T01:14:25;19.10;99.90
42261;DHT22;27926;48.062;7.474;2023-09-18T01:16:57;19.10;99.90
42261;DHT22;27926;48.062;7.474;2023-09-18T01:19:44;19.20;99.90
42261;DHT22;27926;48.062;7.474;2023-09-18T01:22:10;19.10;99.90
42261;DHT22;27926;48.062;7.474;2023-09-18T01:24:37;19.10;99.90
42261;DHT22;27926;48.062;7.474;2023-09-18T01:27:02;19.10;99.90
42261;DHT22;27926;48.062;7.474;2023-09-18T01:29:28;19.20;99.90
42261;DHT22;27926;48.062;7.474;2023-09-18T01:31:53;19.30;99.90
42261;DHT22;27926;48.062;7.474;2023-09-18T01:34:32;19.30;99.90
42261;DHT22;27926;48.062;7.474;2023-09-18T01:36:58;19.40;99.90
42261;DHT22;27926;48.062;7.474;2023-09-18T01:39:22;19.40;99.90
42261;DHT22;27926;48.062;7.474;2023-09-18T01:41:48;19.30;99.90
42261;DHT22;27926;48.062;7.474;2023-09-18T01:44:13;19.30;99.90
42261;DHT22;27926;48.062;7.474;2023-09-18T01:46:41;19.30;99.90
42261;DHT22;27926;48.062;7.474;2023-09-18T01:49:06;19.20;99.90
42261;DHT22;27926;48.062;7.474;2023-09-18T01:51:30;19.20;99.90
42261;DHT22;27926;48.062;7.474;2023-09-18T01:53:56;19.10;99.90
42261;DHT22;27926;48.062;7.474;2023-09-18T01:56:20;19.10;99.90
42261;DHT22;27926;48.062;7.474;2023-09-18T01:58:45;19.00;99.90
42261;DHT22;27926;48.062;7.474;2023-09-18T02:01:10;19.00;99.90
42261;DHT22;27926;48.062;7.474;2023-09-18T02:03:34;19.00;99.90
42261;DHT22;27926;48.062;7.474;2023-09-18T02:05:59;19.00;99.90
42261;DHT22;27926;48.062;7.474;2023-09-18T02:08:23;19.00;99.90
42261;DHT22;27926;48.062;7.474;2023-09-18T02:10:48;19.00;99.90
42261;DHT22;27926;48.062;7.474;2023-09-18T02:13:13;18.90;99.90
42261;DHT22;27926;48.062;7.474;2023-09-18T02:15:37;18.90;99.90
42261;DHT22;27926;48.062;7.474;2023-09-18T02:18:03;18.90;99.90
42261;DHT22;27926;48.062;7.474;2023-09-18T02:20:28;18.80;99.90
42261;DHT22;27926;48.062;7.474;2023-09-18T02:22:52;18.80;99.90
42261;DHT22;27926;48.062;7.474;2023-09-18T02:25:17;18.80;99.90
42261;DHT22;27926;48.062;7.474;2023-09-18T02:27:42;18.80;99.90
42261;DHT22;27926;48.062;7.474;2023-09-18T02:30:07;18.80;99.90
42261;DHT22;27926;48.062;7.474;2023-09-18T02:32:32;18.80;99.90
42261;DHT22;27926;48.062;7.474;2023-09-18T02:34:57;18.80;99.90
42261;DHT22;27926;48.062;7.474;2023-09-18T02:37:21;18.80;99.90
42261;DHT22;27926;48.062;7.474;2023-09-18T02:39:46;18.80;99.90
42261;DHT22;27926;48.062;7.474;2023-09-18T02:42:11;18.80;99.90
42261;DHT22;27926;48.062;7.474;2023-09-18T02:44:36;18.80;99.90
42261;DHT22;27926;48.062;7.474;2023-09-18T02:47:01;18.80;99.90
42261;DHT22;27926;48.062;7.474;2023-09-18T02:49:25;18.80;99.90
42261;DHT22;27926;48.062;7.474;2023-09-18T02:51:50;18.90;99.90
42261;DHT22;27926;48.062;7.474;2023-09-18T02:54:14;18.80;99.90
42261;DHT22;27926;48.062;7.474;2023-09-18T02:56:39;18.80;99.90
42261;DHT22;27926;48.062;7.474;2023-09-18T02:59:04;18.70;99.90
42261;DHT22;27926;48.062;7.474;2023-09-18T03:01:28;18.70;99.90
42261;DHT22;27926;48.062;7.474;2023-09-18T03:03:53;18.70;99.90
42261;DHT22;27926;48.062;7.474;2023-09-18T03:06:17;18.60;99.90
42261;DHT22;27926;48.062;7.474;2023-09-18T03:08:43;18.60;99.90
42261;DHT22;27926;48.062;7.474;2023-09-18T03:11:11;18.60;99.90
42261;DHT22;27926;48.062;7.474;2023-09-18T03:13:37;18.60;99.90
42261;DHT22;27926;48.062;7.474;2023-09-18T03:16:01;18.50;99.90
42261;DHT22;27926;48.062;7.474;2023-09-18T03:18:26;18.50;99.90
42261;DHT22;27926;48.062;7.474;2023-09-18T03:20:51;18.50;99.90
42261;DHT22;27926;48.062;7.474;2023-09-18T03:23:15;18.50;99.90
42261;DHT22;27926;48.062;7.474;2023-09-18T03:25:40;18.40;99.90
42261;DHT22;27926;48.062;7.474;2023-09-18T03:28:04;18.40;99.90
42261;DHT22;27926;48.062;7.474;2023-09-18T03:30:29;18.40;99.90
42261;DHT22;27926;48.062;7.474;2023-09-18T03:32:54;18.40;99.90
42261;DHT22;27926;48.062;7.474;2023-09-18T03:35:20;18.30;99.90
42261;DHT22;27926;48.062;7.474;2023-09-18T03:37:49;18.40;99.90
42261;DHT22;27926;48.062;7.474;2023-09-18T03:40:14;18.40;99.90
42261;DHT22;27926;48.062;7.474;2023-09-18T03:42:38;18.30;99.90
42261;DHT22;27926;48.062;7.474;2023-09-18T03:45:05;18.30;99.90
42261;DHT22;27926;48.062;7.474;2023-09-18T03:47:30;18.30;99.90
42261;DHT22;27926;48.062;7.474;2023-09-18T03:49:55;18.30;99.90
42261;DHT22;27926;48.062;7.474;2023-09-18T03:52:19;18.30;99.90
42261;DHT22;27926;48.062;7.474;2023-09-18T03:54:44;18.30;99.90
42261;DHT22;27926;48.062;7.474;2023-09-18T03:57:09;18.20;99.90
42261;DHT22;27926;48.062;7.474;2023-09-18T03:59:33;18.20;99.90
42261;DHT22;27926;48.062;7.474;2023-09-18T04:01:58;18.20;99.90
42261;DHT22;27926;48.062;7.474;2023-09-18T04:04:22;18.20;99.90
42261;DHT22;27926;48.062;7.474;2023-09-18T04:06:47;18.10;99.90
42261;DHT22;27926;48.062;7.474;2023-09-18T04:09:12;18.10;99.90
42261;DHT22;27926;48.062;7.474;2023-09-18T04:11:36;18.10;99.90
42261;DHT22;27926;48.062;7.474;2023-09-18T04:14:02;18.10;99.90
42261;DHT22;27926;48.062;7.474;2023-09-18T04:16:27;18.10;99.90
42261;DHT22;27926;48.062;7.474;2023-09-18T04:18:55;18.10;99.90
42261;DHT22;27926;48.062;7.474;2023-09-18T04:21:20;18.10;99.90
42261;DHT22;27926;48.062;7.474;2023-09-18T04:23:45;18.10;99.90
42261;DHT22;27926;48.062;7.474;2023-09-18T04:26:10;18.00;99.90
42261;DHT22;27926;48.062;7.474;2023-09-18T04:28:40;18.00;99.90
42261;DHT22;27926;48.062;7.474;2023-09-18T04:31:04;18.10;99.90
42261;DHT22;27926;48.062;7.474;2023-09-18T04:33:29;18.10;99.90
42261;DHT22;27926;48.062;7.474;2023-09-18T04:35:53;18.00;99.90
42261;DHT22;27926;48.062;7.474;2023-09-18T04:38:18;18.00;99.90
42261;DHT22;27926;48.062;7.474;2023-09-18T04:40:45;18.00;99.90
42261;DHT22;27926;48.062;7.474;2023-09-18T04:43:10;18.00;99.90
42261;DHT22;27926;48.062;7.474;2023-09-18T04:45:34;18.00;99.90
42261;DHT22;27926;48.062;7.474;2023-09-18T04:47:59;18.00;99.90
42261;DHT22;27926;48.062;7.474;2023-09-18T04:50:23;18.00;99.90
42261;DHT22;27926;48.062;7.474;2023-09-18T04:52:50;18.00;99.90
42261;DHT22;27926;48.062;7.474;2023-09-18T04:55:16;18.00;99.90
42261;DHT22;27926;48.062;7.474;2023-09-18T04:57:41;18.00;99.90
42261;DHT22;27926;48.062;7.474;2023-09-18T05:00:06;18.00;99.90
42261;DHT22;27926;48.062;7.474;2023-09-18T05:02:37;18.00;99.90
42261;DHT22;27926;48.062;7.474;2023-09-18T05:05:01;18.00;99.90
42261;DHT22;27926;48.062;7.474;2023-09-18T05:07:27;18.00;99.90
42261;DHT22;27926;48.062;7.474;2023-09-18T05:09:52;17.90;99.90
42261;DHT22;27926;48.062;7.474;2023-09-18T05:12:17;17.90;99.90
42261;DHT22;27926;48.062;7.474;2023-09-18T05:14:42;17.90;99.90
42261;DHT22;27926;48.062;7.474;2023-09-18T05:17:10;17.90;99.90
42261;DHT22;27926;48.062;7.474;2023-09-18T05:19:36;17.90;99.90
42261;DHT22;27926;48.062;7.474;2023-09-18T05:22:01;17.90;99.90
42261;DHT22;27926;48.062;7.474;2023-09-18T05:24:25;17.90;99.90
42261;DHT22;27926;48.062;7.474;2023-09-18T05:26:51;17.90;99.90
42261;DHT22;27926;48.062;7.474;2023-09-18T05:29:17;17.90;99.90
42261;DHT22;27926;48.062;7.474;2023-09-18T05:31:41;17.90;99.90
42261;DHT22;27926;48.062;7.474;2023-09-18T05:34:06;18.00;99.90
42261;DHT22;27926;48.062;7.474;2023-09-18T05:36:31;17.90;99.90
42261;DHT22;27926;48.062;7.474;2023-09-18T05:38:56;17.90;99.90
42261;DHT22;27926;48.062;7.474;2023-09-18T05:41:20;17.90;99.90
42261;DHT22;27926;48.062;7.474;2023-09-18T05:43:45;17.90;99.90
42261;DHT22;27926;48.062;7.474;2023-09-18T05:46:11;17.90;99.90
42261;DHT22;27926;48.062;7.474;2023-09-18T05:48:35;17.90;99.90
42261;DHT22;27926;48.062;7.474;2023-09-18T05:51:00;17.90;99.90
42261;DHT22;27926;48.062;7.474;2023-09-18T05:53:25;17.90;99.90
42261;DHT22;27926;48.062;7.474;2023-09-18T05:55:49;18.00;99.90
42261;DHT22;27926;48.062;7.474;2023-09-18T05:58:14;18.00;99.90
42261;DHT22;27926;48.062;7.474;2023-09-18T06:00:39;18.00;99.90
42261;DHT22;27926;48.062;7.474;2023-09-18T06:03:04;18.00;99.90
42261;DHT22;27926;48.062;7.474;2023-09-18T06:05:30;18.00;99.90
42261;DHT22;27926;48.062;7.474;2023-09-18T06:07:55;18.00;99.90
42261;DHT22;27926;48.062;7.474;2023-09-18T06:10:20;18.00;99.90
42261;DHT22;27926;48.062;7.474;2023-09-18T06:12:45;18.00;99.90
42261;DHT22;27926;48.062;7.474;2023-09-18T06:15:10;18.00;99.90
42261;DHT22;27926;48.062;7.474;2023-09-18T06:17:39;18.00;99.90
42261;DHT22;27926;48.062;7.474;2023-09-18T06:20:04;18.00;99.90
42261;DHT22;27926;48.062;7.474;2023-09-18T06:22:29;18.00;99.90
42261;DHT22;27926;48.062;7.474;2023-09-18T06:24:53;18.00;99.90
42261;DHT22;27926;48.062;7.474;2023-09-18T06:27:18;18.00;99.90
42261;DHT22;27926;48.062;7.474;2023-09-18T06:29:43;18.00;99.90
42261;DHT22;27926;48.062;7.474;2023-09-18T06:32:07;18.00;99.90
42261;DHT22;27926;48.062;7.474;2023-09-18T06:34:32;18.00;99.90
42261;DHT22;27926;48.062;7.474;2023-09-18T06:36:57;18.10;99.90
42261;DHT22;27926;48.062;7.474;2023-09-18T06:39:21;18.10;99.90
42261;DHT22;27926;48.062;7.474;2023-09-18T06:41:48;18.10;99.90
42261;DHT22;27926;48.062;7.474;2023-09-18T06:44:12;18.10;99.90
42261;DHT22;27926;48.062;7.474;2023-09-18T06:46:37;18.10;99.90
42261;DHT22;27926;48.062;7.474;2023-09-18T06:49:02;18.10;99.90
42261;DHT22;27926;48.062;7.474;2023-09-18T06:51:27;18.10;99.90
42261;DHT22;27926;48.062;7.474;2023-09-18T06:53:52;18.10;99.90
42261;DHT22;27926;48.062;7.474;2023-09-18T06:56:17;18.10;99.90
42261;DHT22;27926;48.062;7.474;2023-09-18T06:58:41;18.10;99.90
42261;DHT22;27926;48.062;7.474;2023-09-18T07:01:06;18.00;99.90
42261;DHT22;27926;48.062;7.474;2023-09-18T07:03:31;18.10;99.90
42261;DHT22;27926;48.062;7.474;2023-09-18T07:05:56;18.10;99.90
42261;DHT22;27926;48.062;7.474;2023-09-18T07:08:21;18.10;99.90
42261;DHT22;27926;48.062;7.474;2023-09-18T07:10:49;18.10;99.90
42261;DHT22;27926;48.062;7.474;2023-09-18T07:13:14;18.10;99.90
42261;DHT22;27926;48.062;7.474;2023-09-18T07:15:39;18.10;99.90
42261;DHT22;27926;48.062;7.474;2023-09-18T07:18:03;18.10;99.90
42261;DHT22;27926;48.062;7.474;2023-09-18T07:20:28;18.10;99.90
42261;DHT22;27926;48.062;7.474;2023-09-18T07:22:53;18.20;99.90
42261;DHT22;27926;48.062;7.474;2023-09-18T07:25:18;18.10;99.90
42261;DHT22;27926;48.062;7.474;2023-09-18T07:27:46;18.10;99.90
42261;DHT22;27926;48.062;7.474;2023-09-18T07:30:11;18.10;99.90
42261;DHT22;27926;48.062;7.474;2023-09-18T07:32:37;18.10;99.90
42261;DHT22;27926;48.062;7.474;2023-09-18T07:35:01;18.10;99.90
42261;DHT22;27926;48.062;7.474;2023-09-18T07:37:26;18.20;99.90
42261;DHT22;27926;48.062;7.474;2023-09-18T07:39:52;18.20;99.90
42261;DHT22;27926;48.062;7.474;2023-09-18T07:42:16;18.20;99.90
42261;DHT22;27926;48.062;7.474;2023-09-18T07:44:41;18.20;99.90
42261;DHT22;27926;48.062;7.474;2023-09-18T07:47:05;18.20;99.90
42261;DHT22;27926;48.062;7.474;2023-09-18T07:49:30;18.20;99.90
42261;DHT22;27926;48.062;7.474;2023-09-18T07:51:55;18.20;99.90
42261;DHT22;27926;48.062;7.474;2023-09-18T07:54:20;18.20;99.90
42261;DHT22;27926;48.062;7.474;2023-09-18T07:56:44;18.20;99.90
42261;DHT22;27926;48.062;7.474;2023-09-18T07:59:09;18.20;99.90
42261;DHT22;27926;48.062;7.474;2023-09-18T08:01:35;18.30;99.90
42261;DHT22;27926;48.062;7.474;2023-09-18T08:03:59;18.30;99.90
42261;DHT22;27926;48.062;7.474;2023-09-18T08:06:25;18.30;99.90
42261;DHT22;27926;48.062;7.474;2023-09-18T08:08:50;18.30;99.90
42261;DHT22;27926;48.062;7.474;2023-09-18T08:11:15;18.30;99.90
42261;DHT22;27926;48.062;7.474;2023-09-18T08:13:40;18.30;99.90
42261;DHT22;27926;48.062;7.474;2023-09-18T08:16:06;18.40;99.90
42261;DHT22;27926;48.062;7.474;2023-09-18T08:18:34;18.40;99.90
42261;DHT22;27926;48.062;7.474;2023-09-18T08:20:59;18.30;99.90
42261;DHT22;27926;48.062;7.474;2023-09-18T08:23:25;18.30;99.90
42261;DHT22;27926;48.062;7.474;2023-09-18T08:25:49;18.20;99.90
42261;DHT22;27926;48.062;7.474;2023-09-18T08:28:17;18.20;99.90
42261;DHT22;27926;48.062;7.474;2023-09-18T08:30:42;18.20;99.90
42261;DHT22;27926;48.062;7.474;2023-09-18T08:33:11;18.20;99.90
42261;DHT22;27926;48.062;7.474;2023-09-18T08:35:36;18.20;99.90
42261;DHT22;27926;48.062;7.474;2023-09-18T08:38:00;18.10;99.90
42261;DHT22;27926;48.062;7.474;2023-09-18T08:40:25;18.10;99.90
42261;DHT22;27926;48.062;7.474;2023-09-18T08:42:52;18.10;99.90
42261;DHT22;27926;48.062;7.474;2023-09-18T08:45:43;18.10;99.90
42261;DHT22;27926;48.062;7.474;2023-09-18T08:48:10;18.20;99.90
42261;DHT22;27926;48.062;7.474;2023-09-18T08:50:36;18.20;99.90
42261;DHT22;27926;48.062;7.474;2023-09-18T08:53:03;18.20;99.90
42261;DHT22;27926;48.062;7.474;2023-09-18T08:55:28;18.20;99.90
42261;DHT22;27926;48.062;7.474;2023-09-18T08:57:54;18.30;99.90
42261;DHT22;27926;48.062;7.474;2023-09-18T09:00:20;18.30;99.90
42261;DHT22;27926;48.062;7.474;2023-09-18T09:02:45;18.30;99.90
42261;DHT22;27926;48.062;7.474;2023-09-18T09:05:14;18.30;99.90
42261;DHT22;27926;48.062;7.474;2023-09-18T09:07:38;18.30;99.90
42261;DHT22;27926;48.062;7.474;2023-09-18T09:10:04;18.30;99.90
42261;DHT22;27926;48.062;7.474;2023-09-18T09:12:49;18.30;99.90
42261;DHT22;27926;48.062;7.474;2023-09-18T09:15:14;18.30;99.90
42261;DHT22;27926;48.062;7.474;2023-09-18T09:17:39;18.30;99.90
42261;DHT22;27926;48.062;7.474;2023-09-18T09:20:10;18.30;99.90
42261;DHT22;27926;48.062;7.474;2023-09-18T09:22:35;18.40;99.90
42261;DHT22;27926;48.062;7.474;2023-09-18T09:25:00;18.40;99.90
42261;DHT22;27926;48.062;7.474;2023-09-18T09:27:24;18.40;99.90
42261;DHT22;27926;48.062;7.474;2023-09-18T09:30:01;18.40;99.90
42261;DHT22;27926;48.062;7.474;2023-09-18T09:32:31;18.50;99.90
42261;DHT22;27926;48.062;7.474;2023-09-18T09:34:57;18.60;99.90
42261;DHT22;27926;48.062;7.474;2023-09-18T09:37:30;18.70;99.90
42261;DHT22;27926;48.062;7.474;2023-09-18T09:39:56;18.70;99.90
42261;DHT22;27926;48.062;7.474;2023-09-18T09:42:21;18.70;99.90
42261;DHT22;27926;48.062;7.474;2023-09-18T09:45:00;18.80;99.90
42261;DHT22;27926;48.062;7.474;2023-09-18T09:47:26;18.70;99.90
42261;DHT22;27926;48.062;7.474;2023-09-18T09:49:51;18.70;99.90
42261;DHT22;27926;48.062;7.474;2023-09-18T09:52:18;18.70;99.90
42261;DHT22;27926;48.062;7.474;2023-09-18T09:54:46;18.70;99.90
42261;DHT22;27926;48.062;7.474;2023-09-18T09:57:11;18.60;99.90
42261;DHT22;27926;48.062;7.474;2023-09-18T09:59:36;18.70;99.90
42261;DHT22;27926;48.062;7.474;2023-09-18T10:02:00;18.70;99.90
42261;DHT22;27926;48.062;7.474;2023-09-18T10:04:31;18.70;99.90
42261;DHT22;27926;48.062;7.474;2023-09-18T10:07:06;18.70;99.90
42261;DHT22;27926;48.062;7.474;2023-09-18T10:09:34;18.80;99.90
42261;DHT22;27926;48.062;7.474;2023-09-18T10:12:00;18.90;99.90
42261;DHT22;27926;48.062;7.474;2023-09-18T10:14:32;19.00;99.90
42261;DHT22;27926;48.062;7.474;2023-09-18T10:17:16;19.10;99.90
42261;DHT22;27926;48.062;7.474;2023-09-18T10:20:17;19.10;99.90
42261;DHT22;27926;48.062;7.474;2023-09-18T10:22:46;19.20;99.90
42261;DHT22;27926;48.062;7.474;2023-09-18T10:25:23;19.30;99.90
42261;DHT22;27926;48.062;7.474;2023-09-18T10:27:49;19.40;99.90
42261;DHT22;27926;48.062;7.474;2023-09-18T10:30:17;19.60;99.90
42261;DHT22;27926;48.062;7.474;2023-09-18T10:32:44;19.90;99.90
42261;DHT22;27926;48.062;7.474;2023-09-18T10:35:10;20.10;99.90
42261;DHT22;27926;48.062;7.474;2023-09-18T10:37:37;20.30;99.90
42261;DHT22;27926;48.062;7.474;2023-09-18T10:40:02;20.40;99.90
42261;DHT22;27926;48.062;7.474;2023-09-18T10:42:29;20.60;99.90
42261;DHT22;27926;48.062;7.474;2023-09-18T10:44:55;20.80;99.90
42261;DHT22;27926;48.062;7.474;2023-09-18T10:47:20;20.90;99.90
42261;DHT22;27926;48.062;7.474;2023-09-18T10:49:45;21.00;99.90
42261;DHT22;27926;48.062;7.474;2023-09-18T10:52:15;21.10;99.90
42261;DHT22;27926;48.062;7.474;2023-09-18T10:54:42;21.20;99.90
42261;DHT22;27926;48.062;7.474;2023-09-18T10:57:07;21.20;99.90
42261;DHT22;27926;48.062;7.474;2023-09-18T10:59:31;21.20;99.90
42261;DHT22;27926;48.062;7.474;2023-09-18T11:01:56;21.20;99.90
42261;DHT22;27926;48.062;7.474;2023-09-18T11:04:23;21.10;99.90
42261;DHT22;27926;48.062;7.474;2023-09-18T11:09:20;20.90;99.90
42261;DHT22;27926;48.062;7.474;2023-09-18T11:11:45;20.80;99.90
42261;DHT22;27926;48.062;7.474;2023-09-18T11:14:13;20.70;99.90
42261;DHT22;27926;48.062;7.474;2023-09-18T11:16:37;20.70;99.90
42261;DHT22;27926;48.062;7.474;2023-09-18T11:21:30;20.70;99.90
42261;DHT22;27926;48.062;7.474;2023-09-18T11:24:09;20.80;99.90
42261;DHT22;27926;48.062;7.474;2023-09-18T11:26:41;21.00;99.90
42261;DHT22;27926;48.062;7.474;2023-09-18T11:29:08;21.20;99.90
42261;DHT22;27926;48.062;7.474;2023-09-18T11:31:49;21.30;99.90
42261;DHT22;27926;48.062;7.474;2023-09-18T11:36:55;21.50;99.90
42261;DHT22;27926;48.062;7.474;2023-09-18T11:39:39;21.50;99.90
42261;DHT22;27926;48.062;7.474;2023-09-18T11:42:11;21.60;99.90
42261;DHT22;27926;48.062;7.474;2023-09-18T11:44:36;21.50;99.90
42261;DHT22;27926;48.062;7.474;2023-09-18T11:47:07;21.40;99.90
42261;DHT22;27926;48.062;7.474;2023-09-18T11:49:32;21.30;99.90
42261;DHT22;27926;48.062;7.474;2023-09-18T11:51:59;21.30;99.90
42261;DHT22;27926;48.062;7.474;2023-09-18T11:54:24;21.30;99.90
42261;DHT22;27926;48.062;7.474;2023-09-18T11:56:48;21.20;99.90
42261;DHT22;27926;48.062;7.474;2023-09-18T11:59:13;21.30;99.90
42261;DHT22;27926;48.062;7.474;2023-09-18T12:01:38;21.30;99.90
42261;DHT22;27926;48.062;7.474;2023-09-18T12:04:04;21.30;99.90
42261;DHT22;27926;48.062;7.474;2023-09-18T12:06:41;21.20;99.90
42261;DHT22;27926;48.062;7.474;2023-09-18T12:09:07;21.10;99.90
42261;DHT22;27926;48.062;7.474;2023-09-18T12:11:33;21.00;99.90
42261;DHT22;27926;48.062;7.474;2023-09-18T12:14:06;21.00;99.90
42261;DHT22;27926;48.062;7.474;2023-09-18T12:16:37;21.00;99.90
42261;DHT22;27926;48.062;7.474;2023-09-18T12:19:03;21.00;99.90
42261;DHT22;27926;48.062;7.474;2023-09-18T12:21:30;21.10;99.90
42261;DHT22;27926;48.062;7.474;2023-09-18T12:23:55;21.10;99.90
42261;DHT22;27926;48.062;7.474;2023-09-18T12:26:19;21.20;99.90
42261;DHT22;27926;48.062;7.474;2023-09-18T12:28:44;21.30;99.90
42261;DHT22;27926;48.062;7.474;2023-09-18T12:31:13;21.40;99.90
42261;DHT22;27926;48.062;7.474;2023-09-18T12:33:39;21.50;99.90
42261;DHT22;27926;48.062;7.474;2023-09-18T12:36:04;21.60;99.90
42261;DHT22;27926;48.062;7.474;2023-09-18T12:38:29;21.80;99.90
42261;DHT22;27926;48.062;7.474;2023-09-18T12:40:54;21.90;99.90
42261;DHT22;27926;48.062;7.474;2023-09-18T12:43:20;21.90;99.90
42261;DHT22;27926;48.062;7.474;2023-09-18T12:45:48;21.90;99.90
42261;DHT22;27926;48.062;7.474;2023-09-18T12:48:16;22.00;99.90
42261;DHT22;27926;48.062;7.474;2023-09-18T12:50:41;22.00;99.90
42261;DHT22;27926;48.062;7.474;2023-09-18T12:53:10;22.00;99.90
42261;DHT22;27926;48.062;7.474;2023-09-18T12:55:39;22.00;99.90
42261;DHT22;27926;48.062;7.474;2023-09-18T12:58:04;22.10;99.90
42261;DHT22;27926;48.062;7.474;2023-09-18T13:00:32;22.00;99.90
42261;DHT22;27926;48.062;7.474;2023-09-18T13:02:57;22.00;99.90
42261;DHT22;27926;48.062;7.474;2023-09-18T13:05:24;22.10;99.90
42261;DHT22;27926;48.062;7.474;2023-09-18T13:07:56;22.10;99.90
42261;DHT22;27926;48.062;7.474;2023-09-18T13:10:26;22.20;99.90
42261;DHT22;27926;48.062;7.474;2023-09-18T13:12:52;22.30;99.90
42261;DHT22;27926;48.062;7.474;2023-09-18T13:15:31;22.50;99.90
42261;DHT22;27926;48.062;7.474;2023-09-18T13:18:00;22.80;99.90
42261;DHT22;27926;48.062;7.474;2023-09-18T13:20:26;23.00;99.90
42261;DHT22;27926;48.062;7.474;2023-09-18T13:22:56;23.00;99.90
42261;DHT22;27926;48.062;7.474;2023-09-18T13:25:40;23.00;99.90
42261;DHT22;27926;48.062;7.474;2023-09-18T13:28:09;23.00;99.90
42261;DHT22;27926;48.062;7.474;2023-09-18T13:30:35;23.10;99.90
42261;DHT22;27926;48.062;7.474;2023-09-18T13:33:08;23.10;99.90
42261;DHT22;27926;48.062;7.474;2023-09-18T13:35:41;23.10;99.90
42261;DHT22;27926;48.062;7.474;2023-09-18T13:38:06;23.10;99.90
42261;DHT22;27926;48.062;7.474;2023-09-18T13:40:32;22.90;99.90
42261;DHT22;27926;48.062;7.474;2023-09-18T13:42:57;22.70;99.90
42261;DHT22;27926;48.062;7.474;2023-09-18T13:45:22;22.60;99.90
42261;DHT22;27926;48.062;7.474;2023-09-18T13:47:46;22.50;99.90
42261;DHT22;27926;48.062;7.474;2023-09-18T13:50:14;22.50;99.90
42261;DHT22;27926;48.062;7.474;2023-09-18T13:52:38;22.40;99.90
42261;DHT22;27926;48.062;7.474;2023-09-18T13:55:03;22.40;99.90
42261;DHT22;27926;48.062;7.474;2023-09-18T13:57:34;22.30;99.90
42261;DHT22;27926;48.062;7.474;2023-09-18T14:00:03;22.30;99.90
42261;DHT22;27926;48.062;7.474;2023-09-18T14:02:35;22.30;99.90
42261;DHT22;27926;48.062;7.474;2023-09-18T14:04:59;22.30;99.90
42261;DHT22;27926;48.062;7.474;2023-09-18T14:07:24;22.30;99.90
42261;DHT22;27926;48.062;7.474;2023-09-18T14:09:49;22.40;99.90
42261;DHT22;27926;48.062;7.474;2023-09-18T14:12:14;22.70;99.90
42261;DHT22;27926;48.062;7.474;2023-09-18T14:14:39;23.10;99.90
42261;DHT22;27926;48.062;7.474;2023-09-18T14:17:04;23.50;99.90
42261;DHT22;27926;48.062;7.474;2023-09-18T14:19:29;23.70;99.90
42261;DHT22;27926;48.062;7.474;2023-09-18T14:21:54;23.80;99.90
42261;DHT22;27926;48.062;7.474;2023-09-18T14:24:19;23.80;99.90
42261;DHT22;27926;48.062;7.474;2023-09-18T14:26:46;23.70;99.90
42261;DHT22;27926;48.062;7.474;2023-09-18T14:29:11;23.70;99.90
42261;DHT22;27926;48.062;7.474;2023-09-18T14:31:41;23.70;99.90
42261;DHT22;27926;48.062;7.474;2023-09-18T14:34:06;23.70;99.90
42261;DHT22;27926;48.062;7.474;2023-09-18T14:36:32;23.70;99.90
42261;DHT22;27926;48.062;7.474;2023-09-18T14:39:01;23.70;99.90
42261;DHT22;27926;48.062;7.474;2023-09-18T14:41:26;23.60;99.90
42261;DHT22;27926;48.062;7.474;2023-09-18T14:43:51;23.40;99.90
42261;DHT22;27926;48.062;7.474;2023-09-18T14:46:16;23.30;99.90
42261;DHT22;27926;48.062;7.474;2023-09-18T14:48:40;23.30;99.90
42261;DHT22;27926;48.062;7.474;2023-09-18T14:51:05;23.40;99.90
42261;DHT22;27926;48.062;7.474;2023-09-18T14:53:31;23.50;99.90
42261;DHT22;27926;48.062;7.474;2023-09-18T14:55:55;23.50;99.90
42261;DHT22;27926;48.062;7.474;2023-09-18T14:58:21;23.50;99.90
42261;DHT22;27926;48.062;7.474;2023-09-18T15:00:53;23.40;99.90
42261;DHT22;27926;48.062;7.474;2023-09-18T15:03:17;23.30;99.90
42261;DHT22;27926;48.062;7.474;2023-09-18T15:05:42;23.30;99.90
42261;DHT22;27926;48.062;7.474;2023-09-18T15:08:07;23.30;99.90
42261;DHT22;27926;48.062;7.474;2023-09-18T15:10:31;23.20;99.90
42261;DHT22;27926;48.062;7.474;2023-09-18T15:12:56;23.10;99.90
42261;DHT22;27926;48.062;7.474;2023-09-18T15:15:21;23.10;99.90
42261;DHT22;27926;48.062;7.474;2023-09-18T15:17:45;22.90;99.90
42261;DHT22;27926;48.062;7.474;2023-09-18T15:20:10;22.90;99.90
42261;DHT22;27926;48.062;7.474;2023-09-18T15:22:37;23.00;99.90
42261;DHT22;27926;48.062;7.474;2023-09-18T15:25:01;23.10;99.90
42261;DHT22;27926;48.062;7.474;2023-09-18T15:27:26;23.10;99.90
42261;DHT22;27926;48.062;7.474;2023-09-18T15:29:51;23.20;99.90
42261;DHT22;27926;48.062;7.474;2023-09-18T15:32:15;23.30;99.90